sensor_id;sensor_type;location;lat;lon;timestamp;P1;durP1;ratioP1;P2;durP2;ratioP2
62151;SDS011;48139;47.474;19.034;2024-03-08T00:02:43;20.37;;;12.10;;
62151;SDS011;48139;47.474;19.034;2024-03-08T00:05:46;22.37;;;11.57;;
62151;SDS011;48139;47.474;19.034;2024-03-08T00:08:49;20.42;;;11.23;;
62151;SDS011;48139;47.474;19.034;2024-03-08T00:11:53;20.77;;;11.55;;
62151;SDS011;48139;47.474;19.034;2024-03-08T00:14:56;22.00;;;11.35;;
62151;SDS011;48139;47.474;19.034;2024-03-08T00:17:59;19.40;;;9.73;;
62151;SDS011;48139;47.474;19.034;2024-03-08T00:21:02;18.50;;;9.70;;
62151;SDS011;48139;47.474;19.034;2024-03-08T00:24:05;21.98;;;11.70;;
62151;SDS011;48139;47.474;19.034;2024-03-08T00:27:08;18.77;;;11.45;;
62151;SDS011;48139;47.474;19.034;2024-03-08T00:30:12;21.10;;;11.52;;
62151;SDS011;48139;47.474;19.034;2024-03-08T00:33:17;23.52;;;11.50;;
62151;SDS011;48139;47.474;19.034;2024-03-08T00:36:20;19.58;;;12.85;;
62151;SDS011;48139;47.474;19.034;2024-03-08T00:39:23;18.65;;;10.30;;
62151;SDS011;48139;47.474;19.034;2024-03-08T00:42:26;26.25;;;11.98;;
62151;SDS011;48139;47.474;19.034;2024-03-08T00:45:28;21.15;;;12.45;;
62151;SDS011;48139;47.474;19.034;2024-03-08T00:48:31;22.40;;;11.98;;
62151;SDS011;48139;47.474;19.034;2024-03-08T00:51:34;22.33;;;12.13;;
62151;SDS011;48139;47.474;19.034;2024-03-08T00:54:37;22.55;;;12.32;;
62151;SDS011;48139;47.474;19.034;2024-03-08T00:57:40;19.17;;;10.63;;
62151;SDS011;48139;47.474;19.034;2024-03-08T01:00:43;20.30;;;11.18;;
62151;SDS011;48139;47.474;19.034;2024-03-08T01:03:47;22.05;;;12.25;;
62151;SDS011;48139;47.474;19.034;2024-03-08T01:06:51;19.08;;;11.45;;
62151;SDS011;48139;47.474;19.034;2024-03-08T01:09:53;23.05;;;12.43;;
62151;SDS011;48139;47.474;19.034;2024-03-08T01:12:56;19.87;;;12.05;;
62151;SDS011;48139;47.474;19.034;2024-03-08T01:16:01;27.10;;;15.88;;
62151;SDS011;48139;47.474;19.034;2024-03-08T01:19:05;25.42;;;13.13;;
62151;SDS011;48139;47.474;19.034;2024-03-08T01:22:08;25.60;;;14.13;;
62151;SDS011;48139;47.474;19.034;2024-03-08T01:25:12;30.15;;;14.75;;
62151;SDS011;48139;47.474;19.034;2024-03-08T01:28:14;25.67;;;13.38;;
62151;SDS011;48139;47.474;19.034;2024-03-08T01:31:17;24.67;;;13.27;;
62151;SDS011;48139;47.474;19.034;2024-03-08T01:34:20;28.53;;;14.43;;
62151;SDS011;48139;47.474;19.034;2024-03-08T01:37:23;32.30;;;14.15;;
62151;SDS011;48139;47.474;19.034;2024-03-08T01:40:26;27.00;;;15.05;;
62151;SDS011;48139;47.474;19.034;2024-03-08T01:43:29;26.27;;;14.48;;
62151;SDS011;48139;47.474;19.034;2024-03-08T01:46:32;31.73;;;16.23;;
62151;SDS011;48139;47.474;19.034;2024-03-08T01:49:35;25.52;;;14.52;;
62151;SDS011;48139;47.474;19.034;2024-03-08T01:52:38;33.20;;;15.82;;
62151;SDS011;48139;47.474;19.034;2024-03-08T01:55:41;31.87;;;15.90;;
62151;SDS011;48139;47.474;19.034;2024-03-08T01:58:44;27.75;;;13.93;;
62151;SDS011;48139;47.474;19.034;2024-03-08T02:01:49;27.13;;;16.42;;
62151;SDS011;48139;47.474;19.034;2024-03-08T02:04:54;27.05;;;14.23;;
62151;SDS011;48139;47.474;19.034;2024-03-08T02:07:57;28.30;;;14.68;;
62151;SDS011;48139;47.474;19.034;2024-03-08T02:11:00;30.15;;;15.80;;
62151;SDS011;48139;47.474;19.034;2024-03-08T02:14:04;24.45;;;14.18;;
62151;SDS011;48139;47.474;19.034;2024-03-08T02:17:09;26.73;;;14.32;;
62151;SDS011;48139;47.474;19.034;2024-03-08T02:20:13;33.55;;;18.50;;
62151;SDS011;48139;47.474;19.034;2024-03-08T02:23:17;31.62;;;19.12;;
62151;SDS011;48139;47.474;19.034;2024-03-08T02:26:23;32.80;;;16.50;;
62151;SDS011;48139;47.474;19.034;2024-03-08T02:29:26;34.28;;;17.02;;
62151;SDS011;48139;47.474;19.034;2024-03-08T02:32:28;31.50;;;16.93;;
62151;SDS011;48139;47.474;19.034;2024-03-08T02:35:32;30.73;;;16.83;;
62151;SDS011;48139;47.474;19.034;2024-03-08T02:38:35;28.20;;;14.75;;
62151;SDS011;48139;47.474;19.034;2024-03-08T02:41:38;29.80;;;17.85;;
62151;SDS011;48139;47.474;19.034;2024-03-08T02:44:44;33.13;;;19.33;;
62151;SDS011;48139;47.474;19.034;2024-03-08T02:47:47;37.10;;;17.75;;
62151;SDS011;48139;47.474;19.034;2024-03-08T02:50:52;32.65;;;18.17;;
62151;SDS011;48139;47.474;19.034;2024-03-08T02:53:55;38.28;;;18.17;;
62151;SDS011;48139;47.474;19.034;2024-03-08T02:56:58;33.15;;;17.55;;
62151;SDS011;48139;47.474;19.034;2024-03-08T03:00:00;32.47;;;17.80;;
62151;SDS011;48139;47.474;19.034;2024-03-08T03:03:03;31.63;;;18.93;;
62151;SDS011;48139;47.474;19.034;2024-03-08T03:06:06;32.35;;;18.50;;
62151;SDS011;48139;47.474;19.034;2024-03-08T03:09:09;35.27;;;17.57;;
62151;SDS011;48139;47.474;19.034;2024-03-08T03:15:17;31.97;;;17.90;;
62151;SDS011;48139;47.474;19.034;2024-03-08T03:21:27;36.28;;;17.12;;
62151;SDS011;48139;47.474;19.034;2024-03-08T03:24:34;30.95;;;19.87;;
62151;SDS011;48139;47.474;19.034;2024-03-08T03:27:38;34.22;;;17.02;;
62151;SDS011;48139;47.474;19.034;2024-03-08T03:30:44;38.10;;;19.45;;
62151;SDS011;48139;47.474;19.034;2024-03-08T03:33:48;32.75;;;18.15;;
62151;SDS011;48139;47.474;19.034;2024-03-08T03:36:54;33.75;;;18.17;;
62151;SDS011;48139;47.474;19.034;2024-03-08T03:39:58;39.50;;;19.98;;
62151;SDS011;48139;47.474;19.034;2024-03-08T03:43:01;35.85;;;19.27;;
62151;SDS011;48139;47.474;19.034;2024-03-08T03:46:06;43.85;;;21.48;;
62151;SDS011;48139;47.474;19.034;2024-03-08T03:49:10;36.08;;;18.55;;
62151;SDS011;48139;47.474;19.034;2024-03-08T03:52:12;36.33;;;18.37;;
62151;SDS011;48139;47.474;19.034;2024-03-08T03:55:15;38.13;;;17.58;;
62151;SDS011;48139;47.474;19.034;2024-03-08T03:58:18;33.17;;;17.63;;
62151;SDS011;48139;47.474;19.034;2024-03-08T04:01:25;35.83;;;18.10;;
62151;SDS011;48139;47.474;19.034;2024-03-08T04:04:28;38.72;;;22.20;;
62151;SDS011;48139;47.474;19.034;2024-03-08T04:07:31;33.30;;;17.87;;
62151;SDS011;48139;47.474;19.034;2024-03-08T04:10:34;40.67;;;19.43;;
62151;SDS011;48139;47.474;19.034;2024-03-08T04:13:36;38.92;;;20.67;;
62151;SDS011;48139;47.474;19.034;2024-03-08T04:16:39;35.22;;;18.35;;
62151;SDS011;48139;47.474;19.034;2024-03-08T04:19:42;37.90;;;18.63;;
62151;SDS011;48139;47.474;19.034;2024-03-08T04:22:45;34.67;;;18.27;;
62151;SDS011;48139;47.474;19.034;2024-03-08T04:26:43;39.88;;;17.92;;
62151;SDS011;48139;47.474;19.034;2024-03-08T04:29:46;31.85;;;17.83;;
62151;SDS011;48139;47.474;19.034;2024-03-08T04:32:49;37.03;;;19.40;;
62151;SDS011;48139;47.474;19.034;2024-03-08T04:35:52;31.90;;;19.12;;
62151;SDS011;48139;47.474;19.034;2024-03-08T04:38:55;33.13;;;16.55;;
62151;SDS011;48139;47.474;19.034;2024-03-08T04:41:59;41.75;;;19.27;;
62151;SDS011;48139;47.474;19.034;2024-03-08T04:45:09;36.55;;;20.15;;
62151;SDS011;48139;47.474;19.034;2024-03-08T04:48:13;33.47;;;19.58;;
62151;SDS011;48139;47.474;19.034;2024-03-08T04:51:16;39.17;;;20.37;;
62151;SDS011;48139;47.474;19.034;2024-03-08T04:54:19;53.53;;;22.65;;
62151;SDS011;48139;47.474;19.034;2024-03-08T04:57:22;44.90;;;21.63;;
62151;SDS011;48139;47.474;19.034;2024-03-08T05:00:25;31.90;;;17.85;;
62151;SDS011;48139;47.474;19.034;2024-03-08T05:03:27;29.85;;;17.73;;
62151;SDS011;48139;47.474;19.034;2024-03-08T05:06:31;32.00;;;17.45;;
62151;SDS011;48139;47.474;19.034;2024-03-08T05:09:34;38.25;;;20.08;;
62151;SDS011;48139;47.474;19.034;2024-03-08T05:12:38;37.22;;;19.65;;
62151;SDS011;48139;47.474;19.034;2024-03-08T05:15:41;38.25;;;19.27;;
62151;SDS011;48139;47.474;19.034;2024-03-08T05:18:43;34.58;;;20.98;;
62151;SDS011;48139;47.474;19.034;2024-03-08T05:21:47;34.17;;;17.93;;
62151;SDS011;48139;47.474;19.034;2024-03-08T05:24:51;38.78;;;18.02;;
62151;SDS011;48139;47.474;19.034;2024-03-08T05:27:53;44.88;;;20.02;;
62151;SDS011;48139;47.474;19.034;2024-03-08T05:30:56;40.73;;;18.80;;
62151;SDS011;48139;47.474;19.034;2024-03-08T05:33:59;34.28;;;18.45;;
62151;SDS011;48139;47.474;19.034;2024-03-08T05:37:02;33.45;;;18.62;;
62151;SDS011;48139;47.474;19.034;2024-03-08T05:40:08;39.05;;;18.40;;
62151;SDS011;48139;47.474;19.034;2024-03-08T05:43:20;31.42;;;17.33;;
62151;SDS011;48139;47.474;19.034;2024-03-08T05:46:22;36.90;;;20.37;;
62151;SDS011;48139;47.474;19.034;2024-03-08T05:49:26;42.03;;;21.35;;
62151;SDS011;48139;47.474;19.034;2024-03-08T05:52:28;41.13;;;19.00;;
62151;SDS011;48139;47.474;19.034;2024-03-08T05:55:32;43.10;;;21.83;;
62151;SDS011;48139;47.474;19.034;2024-03-08T05:58:39;38.47;;;19.92;;
62151;SDS011;48139;47.474;19.034;2024-03-08T06:01:42;35.13;;;19.48;;
62151;SDS011;48139;47.474;19.034;2024-03-08T06:04:46;37.03;;;20.40;;
62151;SDS011;48139;47.474;19.034;2024-03-08T06:07:49;40.08;;;18.85;;
62151;SDS011;48139;47.474;19.034;2024-03-08T06:10:55;38.75;;;18.48;;
62151;SDS011;48139;47.474;19.034;2024-03-08T06:13:58;32.75;;;17.02;;
62151;SDS011;48139;47.474;19.034;2024-03-08T06:17:03;40.03;;;21.87;;
62151;SDS011;48139;47.474;19.034;2024-03-08T06:20:09;39.22;;;19.98;;
62151;SDS011;48139;47.474;19.034;2024-03-08T06:23:16;33.70;;;18.35;;
62151;SDS011;48139;47.474;19.034;2024-03-08T06:26:22;36.92;;;18.12;;
62151;SDS011;48139;47.474;19.034;2024-03-08T06:29:25;43.13;;;19.92;;
62151;SDS011;48139;47.474;19.034;2024-03-08T06:32:28;32.53;;;18.85;;
62151;SDS011;48139;47.474;19.034;2024-03-08T06:35:31;32.35;;;16.17;;
62151;SDS011;48139;47.474;19.034;2024-03-08T06:38:34;33.97;;;18.50;;
62151;SDS011;48139;47.474;19.034;2024-03-08T06:41:37;34.33;;;18.52;;
62151;SDS011;48139;47.474;19.034;2024-03-08T06:44:40;36.63;;;18.23;;
62151;SDS011;48139;47.474;19.034;2024-03-08T06:47:51;32.33;;;18.40;;
62151;SDS011;48139;47.474;19.034;2024-03-08T06:50:55;41.65;;;20.92;;
62151;SDS011;48139;47.474;19.034;2024-03-08T06:53:59;32.25;;;18.05;;
62151;SDS011;48139;47.474;19.034;2024-03-08T06:57:04;43.03;;;17.60;;
62151;SDS011;48139;47.474;19.034;2024-03-08T07:00:08;46.80;;;21.37;;
62151;SDS011;48139;47.474;19.034;2024-03-08T07:03:17;38.53;;;21.83;;
62151;SDS011;48139;47.474;19.034;2024-03-08T07:06:27;41.58;;;19.25;;
62151;SDS011;48139;47.474;19.034;2024-03-08T07:09:30;37.70;;;17.60;;
62151;SDS011;48139;47.474;19.034;2024-03-08T07:12:33;34.72;;;20.02;;
62151;SDS011;48139;47.474;19.034;2024-03-08T07:15:36;39.20;;;22.43;;
62151;SDS011;48139;47.474;19.034;2024-03-08T07:18:39;39.15;;;19.55;;
62151;SDS011;48139;47.474;19.034;2024-03-08T07:21:46;39.50;;;19.02;;
62151;SDS011;48139;47.474;19.034;2024-03-08T07:24:49;37.85;;;18.45;;
62151;SDS011;48139;47.474;19.034;2024-03-08T07:28:12;38.85;;;21.77;;
62151;SDS011;48139;47.474;19.034;2024-03-08T07:31:15;36.60;;;20.33;;
62151;SDS011;48139;47.474;19.034;2024-03-08T07:37:34;46.35;;;21.23;;
62151;SDS011;48139;47.474;19.034;2024-03-08T07:40:37;37.07;;;20.20;;
62151;SDS011;48139;47.474;19.034;2024-03-08T07:43:43;44.58;;;23.23;;
62151;SDS011;48139;47.474;19.034;2024-03-08T07:46:46;42.50;;;19.70;;
62151;SDS011;48139;47.474;19.034;2024-03-08T07:49:49;40.55;;;20.70;;
62151;SDS011;48139;47.474;19.034;2024-03-08T07:52:51;37.57;;;19.97;;
62151;SDS011;48139;47.474;19.034;2024-03-08T07:55:54;39.47;;;21.50;;
62151;SDS011;48139;47.474;19.034;2024-03-08T07:58:57;44.60;;;21.77;;
62151;SDS011;48139;47.474;19.034;2024-03-08T08:02:00;46.65;;;22.30;;
62151;SDS011;48139;47.474;19.034;2024-03-08T08:05:03;41.35;;;19.85;;
62151;SDS011;48139;47.474;19.034;2024-03-08T08:08:10;43.63;;;24.67;;
62151;SDS011;48139;47.474;19.034;2024-03-08T08:11:14;46.42;;;21.73;;
62151;SDS011;48139;47.474;19.034;2024-03-08T08:14:18;43.40;;;22.83;;
62151;SDS011;48139;47.474;19.034;2024-03-08T08:17:23;38.33;;;21.62;;
62151;SDS011;48139;47.474;19.034;2024-03-08T08:20:25;43.15;;;19.83;;
62151;SDS011;48139;47.474;19.034;2024-03-08T08:23:30;44.33;;;22.67;;
62151;SDS011;48139;47.474;19.034;2024-03-08T08:26:33;38.05;;;20.12;;
62151;SDS011;48139;47.474;19.034;2024-03-08T08:29:40;43.05;;;21.00;;
62151;SDS011;48139;47.474;19.034;2024-03-08T08:32:43;44.35;;;20.85;;
62151;SDS011;48139;47.474;19.034;2024-03-08T08:38:50;50.92;;;21.70;;
62151;SDS011;48139;47.474;19.034;2024-03-08T08:41:52;41.35;;;23.62;;
62151;SDS011;48139;47.474;19.034;2024-03-08T08:49:05;48.38;;;20.58;;
62151;SDS011;48139;47.474;19.034;2024-03-08T08:52:40;41.30;;;21.93;;
62151;SDS011;48139;47.474;19.034;2024-03-08T08:55:57;51.00;;;22.15;;
62151;SDS011;48139;47.474;19.034;2024-03-08T08:59:05;53.67;;;25.37;;
62151;SDS011;48139;47.474;19.034;2024-03-08T09:02:08;48.65;;;22.87;;
62151;SDS011;48139;47.474;19.034;2024-03-08T09:05:18;41.72;;;21.40;;
62151;SDS011;48139;47.474;19.034;2024-03-08T09:08:28;43.92;;;21.10;;
62151;SDS011;48139;47.474;19.034;2024-03-08T09:11:37;41.92;;;22.83;;
62151;SDS011;48139;47.474;19.034;2024-03-08T09:14:44;40.05;;;20.88;;
62151;SDS011;48139;47.474;19.034;2024-03-08T09:17:47;39.60;;;21.35;;
62151;SDS011;48139;47.474;19.034;2024-03-08T09:24:01;38.90;;;21.48;;
62151;SDS011;48139;47.474;19.034;2024-03-08T09:27:04;42.72;;;19.12;;
62151;SDS011;48139;47.474;19.034;2024-03-08T09:30:07;48.03;;;22.75;;
62151;SDS011;48139;47.474;19.034;2024-03-08T09:36:14;40.28;;;19.90;;
62151;SDS011;48139;47.474;19.034;2024-03-08T09:39:16;40.45;;;20.00;;
62151;SDS011;48139;47.474;19.034;2024-03-08T09:45:22;37.53;;;21.98;;
62151;SDS011;48139;47.474;19.034;2024-03-08T09:48:27;38.38;;;23.10;;
62151;SDS011;48139;47.474;19.034;2024-03-08T09:51:31;38.25;;;20.12;;
62151;SDS011;48139;47.474;19.034;2024-03-08T09:54:37;36.15;;;16.58;;
62151;SDS011;48139;47.474;19.034;2024-03-08T09:57:40;36.10;;;19.40;;
62151;SDS011;48139;47.474;19.034;2024-03-08T10:00:56;42.25;;;21.85;;
62151;SDS011;48139;47.474;19.034;2024-03-08T10:07:04;41.03;;;21.48;;
62151;SDS011;48139;47.474;19.034;2024-03-08T10:10:09;49.53;;;23.98;;
62151;SDS011;48139;47.474;19.034;2024-03-08T10:13:14;42.13;;;20.20;;
62151;SDS011;48139;47.474;19.034;2024-03-08T10:16:19;37.55;;;19.85;;
62151;SDS011;48139;47.474;19.034;2024-03-08T10:19:22;40.95;;;20.52;;
62151;SDS011;48139;47.474;19.034;2024-03-08T10:22:30;38.85;;;18.52;;
62151;SDS011;48139;47.474;19.034;2024-03-08T10:25:34;34.92;;;17.65;;
62151;SDS011;48139;47.474;19.034;2024-03-08T10:31:40;32.20;;;17.55;;
62151;SDS011;48139;47.474;19.034;2024-03-08T10:34:46;30.70;;;18.02;;
62151;SDS011;48139;47.474;19.034;2024-03-08T10:37:49;36.95;;;17.00;;
62151;SDS011;48139;47.474;19.034;2024-03-08T10:41:01;34.35;;;17.92;;
62151;SDS011;48139;47.474;19.034;2024-03-08T10:47:26;34.83;;;18.17;;
62151;SDS011;48139;47.474;19.034;2024-03-08T10:50:32;32.90;;;17.48;;
62151;SDS011;48139;47.474;19.034;2024-03-08T10:53:37;30.77;;;17.67;;
62151;SDS011;48139;47.474;19.034;2024-03-08T10:56:45;36.10;;;17.33;;
62151;SDS011;48139;47.474;19.034;2024-03-08T10:59:51;33.78;;;18.23;;
62151;SDS011;48139;47.474;19.034;2024-03-08T11:03:04;36.88;;;17.45;;
62151;SDS011;48139;47.474;19.034;2024-03-08T11:09:27;33.60;;;17.27;;
62151;SDS011;48139;47.474;19.034;2024-03-08T11:12:37;33.20;;;19.10;;
62151;SDS011;48139;47.474;19.034;2024-03-08T11:15:40;34.88;;;19.17;;
62151;SDS011;48139;47.474;19.034;2024-03-08T11:18:45;38.05;;;20.98;;
62151;SDS011;48139;47.474;19.034;2024-03-08T11:21:59;40.95;;;17.85;;
62151;SDS011;48139;47.474;19.034;2024-03-08T11:25:05;32.70;;;17.35;;
62151;SDS011;48139;47.474;19.034;2024-03-08T11:28:17;33.53;;;16.75;;
62151;SDS011;48139;47.474;19.034;2024-03-08T11:31:22;36.15;;;17.92;;
62151;SDS011;48139;47.474;19.034;2024-03-08T11:34:27;32.03;;;18.42;;
62151;SDS011;48139;47.474;19.034;2024-03-08T11:37:30;35.65;;;17.10;;
62151;SDS011;48139;47.474;19.034;2024-03-08T11:40:37;28.00;;;15.90;;
62151;SDS011;48139;47.474;19.034;2024-03-08T11:43:42;33.42;;;17.12;;
62151;SDS011;48139;47.474;19.034;2024-03-08T11:46:45;30.00;;;15.80;;
62151;SDS011;48139;47.474;19.034;2024-03-08T11:49:51;35.17;;;17.17;;
62151;SDS011;48139;47.474;19.034;2024-03-08T11:53:02;27.87;;;16.33;;
62151;SDS011;48139;47.474;19.034;2024-03-08T11:56:07;29.27;;;18.90;;
62151;SDS011;48139;47.474;19.034;2024-03-08T11:59:13;29.90;;;13.82;;
62151;SDS011;48139;47.474;19.034;2024-03-08T12:02:16;48.35;;;18.23;;
62151;SDS011;48139;47.474;19.034;2024-03-08T12:05:20;30.83;;;16.52;;
62151;SDS011;48139;47.474;19.034;2024-03-08T12:08:23;28.65;;;15.45;;
62151;SDS011;48139;47.474;19.034;2024-03-08T12:11:27;27.30;;;15.57;;
62151;SDS011;48139;47.474;19.034;2024-03-08T12:14:33;29.37;;;17.40;;
62151;SDS011;48139;47.474;19.034;2024-03-08T12:17:38;37.42;;;19.33;;
62151;SDS011;48139;47.474;19.034;2024-03-08T12:20:45;28.17;;;16.10;;
62151;SDS011;48139;47.474;19.034;2024-03-08T12:24:02;35.88;;;17.00;;
62151;SDS011;48139;47.474;19.034;2024-03-08T12:27:19;35.95;;;17.58;;
62151;SDS011;48139;47.474;19.034;2024-03-08T12:30:23;35.85;;;20.37;;
62151;SDS011;48139;47.474;19.034;2024-03-08T12:33:31;37.88;;;21.35;;
62151;SDS011;48139;47.474;19.034;2024-03-08T12:36:34;39.10;;;17.67;;
62151;SDS011;48139;47.474;19.034;2024-03-08T12:39:40;35.97;;;18.73;;
62151;SDS011;48139;47.474;19.034;2024-03-08T12:42:48;30.77;;;17.62;;
62151;SDS011;48139;47.474;19.034;2024-03-08T12:45:50;33.00;;;19.45;;
62151;SDS011;48139;47.474;19.034;2024-03-08T12:48:54;33.60;;;18.80;;
62151;SDS011;48139;47.474;19.034;2024-03-08T12:51:57;27.85;;;15.10;;
62151;SDS011;48139;47.474;19.034;2024-03-08T12:54:59;24.42;;;14.02;;
62151;SDS011;48139;47.474;19.034;2024-03-08T12:58:09;21.05;;;13.38;;
62151;SDS011;48139;47.474;19.034;2024-03-08T13:01:12;25.15;;;14.65;;
62151;SDS011;48139;47.474;19.034;2024-03-08T13:04:16;20.85;;;12.82;;
62151;SDS011;48139;47.474;19.034;2024-03-08T13:07:19;25.45;;;16.17;;
62151;SDS011;48139;47.474;19.034;2024-03-08T13:10:21;21.37;;;13.95;;
62151;SDS011;48139;47.474;19.034;2024-03-08T13:13:25;17.52;;;10.65;;
62151;SDS011;48139;47.474;19.034;2024-03-08T13:16:28;21.50;;;13.43;;
62151;SDS011;48139;47.474;19.034;2024-03-08T13:19:32;19.42;;;11.77;;
62151;SDS011;48139;47.474;19.034;2024-03-08T13:22:36;23.98;;;15.98;;
62151;SDS011;48139;47.474;19.034;2024-03-08T13:25:39;19.45;;;11.12;;
62151;SDS011;48139;47.474;19.034;2024-03-08T13:28:43;20.90;;;11.93;;
62151;SDS011;48139;47.474;19.034;2024-03-08T13:31:48;19.33;;;12.15;;
62151;SDS011;48139;47.474;19.034;2024-03-08T13:34:54;16.15;;;8.65;;
62151;SDS011;48139;47.474;19.034;2024-03-08T13:37:58;17.58;;;9.48;;
62151;SDS011;48139;47.474;19.034;2024-03-08T13:41:00;14.60;;;10.48;;
62151;SDS011;48139;47.474;19.034;2024-03-08T13:44:03;16.73;;;10.63;;
62151;SDS011;48139;47.474;19.034;2024-03-08T13:47:06;23.30;;;13.32;;
62151;SDS011;48139;47.474;19.034;2024-03-08T13:50:10;26.08;;;14.48;;
62151;SDS011;48139;47.474;19.034;2024-03-08T13:53:23;24.30;;;12.32;;
62151;SDS011;48139;47.474;19.034;2024-03-08T13:56:26;25.60;;;16.10;;
62151;SDS011;48139;47.474;19.034;2024-03-08T13:59:32;25.33;;;15.13;;
62151;SDS011;48139;47.474;19.034;2024-03-08T14:02:35;24.05;;;15.30;;
62151;SDS011;48139;47.474;19.034;2024-03-08T14:05:39;27.98;;;16.05;;
62151;SDS011;48139;47.474;19.034;2024-03-08T14:11:44;21.73;;;12.77;;
62151;SDS011;48139;47.474;19.034;2024-03-08T14:14:47;29.37;;;14.05;;
62151;SDS011;48139;47.474;19.034;2024-03-08T14:17:53;29.23;;;16.92;;
62151;SDS011;48139;47.474;19.034;2024-03-08T14:20:57;25.15;;;13.43;;
62151;SDS011;48139;47.474;19.034;2024-03-08T14:24:00;26.92;;;15.63;;
62151;SDS011;48139;47.474;19.034;2024-03-08T14:27:03;25.03;;;15.23;;
62151;SDS011;48139;47.474;19.034;2024-03-08T14:30:11;27.37;;;14.80;;
62151;SDS011;48139;47.474;19.034;2024-03-08T14:33:15;25.92;;;14.63;;
62151;SDS011;48139;47.474;19.034;2024-03-08T14:36:19;28.23;;;14.15;;
62151;SDS011;48139;47.474;19.034;2024-03-08T14:39:27;27.55;;;13.73;;
62151;SDS011;48139;47.474;19.034;2024-03-08T14:45:34;26.73;;;13.95;;
62151;SDS011;48139;47.474;19.034;2024-03-08T14:48:37;27.15;;;15.70;;
62151;SDS011;48139;47.474;19.034;2024-03-08T14:51:40;28.13;;;16.43;;
62151;SDS011;48139;47.474;19.034;2024-03-08T14:54:43;29.77;;;15.63;;
62151;SDS011;48139;47.474;19.034;2024-03-08T14:57:45;27.77;;;15.27;;
62151;SDS011;48139;47.474;19.034;2024-03-08T15:00:48;29.70;;;16.25;;
62151;SDS011;48139;47.474;19.034;2024-03-08T15:03:57;29.35;;;14.27;;
62151;SDS011;48139;47.474;19.034;2024-03-08T15:07:04;27.85;;;14.95;;
62151;SDS011;48139;47.474;19.034;2024-03-08T15:10:08;29.58;;;17.15;;
62151;SDS011;48139;47.474;19.034;2024-03-08T15:13:17;27.87;;;16.52;;
62151;SDS011;48139;47.474;19.034;2024-03-08T15:16:24;25.67;;;13.70;;
62151;SDS011;48139;47.474;19.034;2024-03-08T15:19:28;30.02;;;16.75;;
62151;SDS011;48139;47.474;19.034;2024-03-08T15:22:31;25.05;;;14.52;;
62151;SDS011;48139;47.474;19.034;2024-03-08T15:25:33;30.70;;;14.50;;
62151;SDS011;48139;47.474;19.034;2024-03-08T15:28:38;24.33;;;13.45;;
62151;SDS011;48139;47.474;19.034;2024-03-08T15:31:42;22.65;;;14.43;;
62151;SDS011;48139;47.474;19.034;2024-03-08T15:34:45;25.58;;;16.62;;
62151;SDS011;48139;47.474;19.034;2024-03-08T15:40:51;26.75;;;15.15;;
62151;SDS011;48139;47.474;19.034;2024-03-08T15:43:54;31.48;;;14.43;;
62151;SDS011;48139;47.474;19.034;2024-03-08T15:46:58;27.10;;;14.35;;
62151;SDS011;48139;47.474;19.034;2024-03-08T15:50:01;26.80;;;13.35;;
62151;SDS011;48139;47.474;19.034;2024-03-08T15:53:06;33.40;;;16.08;;
62151;SDS011;48139;47.474;19.034;2024-03-08T15:56:09;29.60;;;15.10;;
62151;SDS011;48139;47.474;19.034;2024-03-08T15:59:11;31.08;;;16.20;;
62151;SDS011;48139;47.474;19.034;2024-03-08T16:02:14;24.42;;;13.40;;
62151;SDS011;48139;47.474;19.034;2024-03-08T16:05:17;31.83;;;16.42;;
62151;SDS011;48139;47.474;19.034;2024-03-08T16:08:21;25.45;;;14.87;;
62151;SDS011;48139;47.474;19.034;2024-03-08T16:11:25;26.62;;;14.20;;
62151;SDS011;48139;47.474;19.034;2024-03-08T16:14:27;30.47;;;17.83;;
62151;SDS011;48139;47.474;19.034;2024-03-08T16:17:30;30.23;;;14.70;;
62151;SDS011;48139;47.474;19.034;2024-03-08T16:20:33;33.08;;;15.18;;
62151;SDS011;48139;47.474;19.034;2024-03-08T16:23:36;27.48;;;15.20;;
62151;SDS011;48139;47.474;19.034;2024-03-08T16:29:43;24.77;;;17.40;;
62151;SDS011;48139;47.474;19.034;2024-03-08T16:32:47;29.25;;;14.85;;
